createdAt,value
2022-09-30T00:01:05.262Z,100848.56
2022-09-30T00:03:32.701Z,100853.72
2022-09-30T00:06:08.722Z,100855.41
2022-09-30T00:08:38.349Z,100857.16
2022-09-30T00:11:09.351Z,100850.22
2022-09-30T00:13:40.085Z,100848.50
2022-09-30T00:16:08.691Z,100845.88
2022-09-30T00:18:36.679Z,100850.19
2022-09-30T00:21:05.142Z,100841.53
2022-09-30T00:23:32.751Z,100840.63
2022-09-30T00:26:05.559Z,100844.94
2022-09-30T00:28:33.285Z,100841.38
2022-09-30T00:31:02.788Z,100850.06
2022-09-30T00:33:30.305Z,100849.16
2022-09-30T00:35:57.906Z,100860.34
2022-09-30T00:38:25.365Z,100865.56
2022-09-30T00:40:52.864Z,100853.50
2022-09-30T00:43:40.822Z,100863.81
2022-09-30T00:46:18.008Z,100854.31
2022-09-30T00:48:50.865Z,100856.03
2022-09-30T00:51:19.061Z,100856.91
2022-09-30T00:53:54.358Z,100855.16
2022-09-30T00:56:26.464Z,100862.09
2022-09-30T00:59:09.457Z,100855.22
2022-09-30T01:01:41.059Z,100848.28
2022-09-30T01:04:15.520Z,100858.59
2022-09-30T01:09:12.405Z,100848.25
2022-09-30T01:11:40.799Z,100849.97
2022-09-30T01:14:19.134Z,100854.31
2022-09-30T01:16:58.749Z,100855.16
2022-09-30T01:19:58.152Z,100843.03
2022-09-30T01:22:42.535Z,100849.00
2022-09-30T01:25:18.796Z,100858.50
2022-09-30T01:28:07.533Z,100860.19
2022-09-30T01:31:07.899Z,100865.44
2022-09-30T01:34:11.395Z,100865.44
2022-09-30T01:36:54.846Z,100857.72
2022-09-30T01:39:34.122Z,100867.25
2022-09-30T01:42:19.436Z,100863.78
2022-09-30T01:45:03.527Z,100860.41
2022-09-30T01:47:44.413Z,100865.56
2022-09-30T01:50:33.719Z,100865.59
2022-09-30T01:53:21.869Z,100872.53
2022-09-30T01:56:01.793Z,100861.28
2022-09-30T01:58:45.613Z,100868.31
2022-09-30T02:01:20.623Z,100870.91
2022-09-30T02:03:56.760Z,100865.78
2022-09-30T02:06:34.579Z,100876.19
2022-09-30T02:09:13.250Z,100864.13
2022-09-30T02:11:42.730Z,100865.84
2022-09-30T02:14:20.351Z,100865.84
2022-09-30T02:16:54.506Z,100868.50
2022-09-30T02:19:34.798Z,100860.75
2022-09-30T02:22:09.107Z,100864.22
2022-09-30T02:24:38.024Z,100852.09
2022-09-30T02:27:23.112Z,100869.38
2022-09-30T02:29:56.777Z,100852.94
2022-09-30T02:32:32.647Z,100861.50
2022-09-30T02:35:10.057Z,100858.03
2022-09-30T02:37:42.058Z,100856.28
2022-09-30T02:40:32.711Z,100870.03
2022-09-30T02:43:00.320Z,100862.22
2022-09-30T02:45:29.222Z,100869.06
2022-09-30T02:48:23.252Z,100869.91
2022-09-30T02:51:03.895Z,100859.50
2022-09-30T02:53:48.289Z,100843.91
2022-09-30T02:56:47.727Z,100855.97
2022-09-30T02:59:15.626Z,100863.66
2022-09-30T03:01:44.400Z,100870.53
2022-09-30T03:04:16.034Z,100866.22
2022-09-30T03:06:43.780Z,100867.00
2022-09-30T03:09:11.498Z,100855.72
2022-09-30T03:11:39.076Z,100865.22
2022-09-30T03:14:24.002Z,100862.59
2022-09-30T03:16:57.442Z,100868.59
2022-09-30T03:19:46.601Z,100876.28
2022-09-30T03:22:47.718Z,100875.34
2022-09-30T03:25:34.247Z,100882.19
2022-09-30T03:28:18.936Z,100878.63
2022-09-30T03:31:12.104Z,100895.91
2022-09-30T03:34:08.790Z,100898.47
2022-09-30T03:36:46.738Z,100906.19
2022-09-30T03:39:33.134Z,100907.84
2022-09-30T03:42:20.653Z,100904.34
2022-09-30T03:45:12.898Z,100899.97
2022-09-30T03:47:54.423Z,100898.09
2022-09-30T03:50:24.471Z,100913.72
2022-09-30T03:52:52.549Z,100907.63
2022-09-30T03:55:22.499Z,100918.00
2022-09-30T03:57:51.279Z,100918.00
2022-09-30T04:00:19.292Z,100916.28
2022-09-30T04:02:46.790Z,100915.44
2022-09-30T04:05:14.330Z,100911.06
2022-09-30T04:07:41.800Z,100913.53
2022-09-30T04:10:09.781Z,100925.56
2022-09-30T04:12:37.380Z,100928.19
2022-09-30T04:15:06.187Z,100935.03
2022-09-30T04:17:33.661Z,100935.03
2022-09-30T04:20:01.279Z,100941.84
2022-09-30T04:22:28.759Z,100941.84
2022-09-30T04:24:56.272Z,100933.19
2022-09-30T04:27:23.753Z,100944.44
2022-09-30T04:29:51.236Z,100943.56
2022-09-30T04:32:18.687Z,100948.75
2022-09-30T04:34:46.174Z,100947.03
2022-09-30T04:37:14.201Z,100953.06
2022-09-30T04:39:41.894Z,100952.19
2022-09-30T04:42:09.433Z,100948.72
2022-09-30T04:44:37.071Z,100957.28
2022-09-30T04:47:04.751Z,100948.59
2022-09-30T04:49:32.227Z,100959.84
2022-09-30T04:51:59.699Z,100951.19
2022-09-30T04:54:27.197Z,100949.44
2022-09-30T04:56:54.665Z,100950.25
2022-09-30T04:59:22.299Z,100958.84
2022-09-30T05:01:49.920Z,100965.78
2022-09-30T05:04:17.645Z,100970.97
2022-09-30T05:06:45.145Z,100981.22
2022-09-30T05:09:12.654Z,100969.09
2022-09-30T05:11:42.221Z,100976.00
2022-09-30T05:14:10.011Z,100974.28
2022-09-30T05:16:37.795Z,100975.94
2022-09-30T05:19:05.386Z,100980.25
2022-09-30T05:21:32.902Z,100974.22
2022-09-30T05:24:00.446Z,100967.31
2022-09-30T05:26:28.185Z,100978.53
2022-09-30T05:28:55.682Z,100981.16
2022-09-30T05:31:23.242Z,100986.31
2022-09-30T05:33:54.566Z,100986.38
2022-09-30T05:36:24.786Z,100986.38
2022-09-30T05:38:52.926Z,100983.81
2022-09-30T05:41:21.102Z,100986.38
2022-09-30T05:43:49.595Z,100989.00
2022-09-30T05:46:19.121Z,100992.41
2022-09-30T05:48:47.351Z,100989.91
2022-09-30T05:51:14.896Z,100991.59
2022-09-30T05:53:42.521Z,100996.78
2022-09-30T05:56:11.503Z,100996.78
2022-09-30T05:58:40.622Z,100989.97
2022-09-30T06:01:14.255Z,100988.22
2022-09-30T06:03:46.672Z,101000.34
2022-09-30T06:06:15.584Z,100993.41
2022-09-30T06:08:43.797Z,100993.53
2022-09-30T06:11:23.485Z,101005.66
2022-09-30T06:13:50.999Z,100988.53
2022-09-30T06:16:19.943Z,100999.75
2022-09-30T06:18:47.508Z,101005.91
2022-09-30T06:21:17.595Z,101005.97
2022-09-30T06:23:45.399Z,101006.09
2022-09-30T06:26:14.364Z,101001.00
2022-09-30T06:28:42.709Z,101014.06
2022-09-30T06:31:11.436Z,101010.72
2022-09-30T06:33:39.105Z,101002.94
2022-09-30T06:36:07.213Z,101018.69
2022-09-30T06:38:37.652Z,101018.78
2022-09-30T06:41:05.888Z,101012.00
2022-09-30T06:43:41.502Z,101020.75
2022-09-30T06:46:30.331Z,101026.09
2022-09-30T06:49:10.104Z,101034.94
2022-09-30T06:51:39.958Z,101022.13
2022-09-30T06:54:07.950Z,101020.50
2022-09-30T06:56:35.563Z,101023.19
2022-09-30T06:59:03.199Z,101019.06
2022-09-30T07:01:30.810Z,101032.16
2022-09-30T07:03:58.847Z,101025.34
2022-09-30T07:06:27.445Z,101031.50
2022-09-30T07:08:55.179Z,101034.19
2022-09-30T07:11:24.177Z,101030.88
2022-09-30T07:13:51.687Z,101029.25
2022-09-30T07:16:21.300Z,101024.94
2022-09-30T07:18:48.929Z,101022.41
2022-09-30T07:21:17.164Z,101023.38
2022-09-30T07:23:47.486Z,101015.72
2022-09-30T07:26:23.598Z,101010.56
2022-09-30T07:28:52.349Z,101004.56
2022-09-30T07:31:32.318Z,101014.97
2022-09-30T07:34:01.803Z,101002.03
2022-09-30T07:36:33.254Z,101002.94
2022-09-30T07:39:06.138Z,100996.88
2022-09-30T07:41:36.908Z,100998.59
2022-09-30T07:44:06.754Z,100990.81
2022-09-30T07:46:38.550Z,101000.31
2022-09-30T07:49:07.014Z,100991.59
2022-09-30T07:51:39.499Z,100994.16
2022-09-30T07:54:09.092Z,100993.22
2022-09-30T07:59:28.291Z,100981.91
2022-09-30T08:01:56.385Z,100976.59
2022-09-30T08:04:25.835Z,100979.13
2022-09-30T08:07:00.571Z,100963.44
2022-09-30T08:09:30.660Z,100970.31
2022-09-30T08:11:59.072Z,100970.22
2022-09-30T08:14:28.797Z,100970.13
2022-09-30T08:16:58.270Z,100971.72
2022-09-30T08:19:26.662Z,100974.19
2022-09-30T08:21:55.240Z,100967.06
2022-09-30T08:24:24.025Z,100968.72
2022-09-30T08:26:52.647Z,100969.38
2022-09-30T08:29:35.653Z,100969.03
2022-09-30T08:32:08.239Z,100977.38
2022-09-30T08:34:36.108Z,100975.00
2022-09-30T08:37:09.072Z,100964.34
2022-09-30T08:39:38.301Z,100965.53
2022-09-30T08:42:38.333Z,100957.78
2022-09-30T08:45:19.480Z,100957.53
2022-09-30T08:48:05.474Z,100956.66
2022-09-30T08:50:47.227Z,100960.44
2022-09-30T08:53:23.986Z,100965.47
2022-09-30T08:55:52.473Z,100969.00
2022-09-30T08:58:28.671Z,100964.56
2022-09-30T09:01:10.653Z,100967.88
2022-09-30T09:03:40.171Z,100963.25
2022-09-30T09:06:33.824Z,100970.69
2022-09-30T09:09:20.416Z,100969.53
2022-09-30T09:12:00.911Z,100970.75
2022-09-30T09:14:34.188Z,100956.88
2022-09-30T09:17:20.118Z,100962.56
2022-09-30T09:19:54.633Z,100962.97
2022-09-30T09:22:24.819Z,100972.25
2022-09-30T09:24:55.205Z,100958.66
2022-09-30T09:27:47.873Z,100954.34
2022-09-30T09:30:22.295Z,100953.63
2022-09-30T09:32:57.189Z,100943.47
2022-09-30T09:35:54.117Z,100965.50
2022-09-30T09:38:36.029Z,100952.34
2022-09-30T09:41:21.801Z,100950.78
2022-09-30T09:43:52.713Z,100941.31
2022-09-30T09:46:49.075Z,100944.50
2022-09-30T09:49:20.709Z,100945.06
2022-09-30T09:52:00.282Z,100945.72
2022-09-30T09:54:31.142Z,100956.19
2022-09-30T09:57:09.329Z,100942.69
2022-09-30T09:59:37.751Z,100942.78
2022-09-30T10:02:24.121Z,100950.00
2022-09-30T10:04:59.962Z,100948.66
2022-09-30T10:07:29.945Z,100948.72
2022-09-30T10:10:23.376Z,100950.97
2022-09-30T10:12:51.448Z,100949.53
2022-09-30T10:15:24.348Z,100939.56
2022-09-30T10:18:00.843Z,100951.16
2022-09-30T10:20:33.511Z,100931.31
2022-09-30T10:23:04.217Z,100941.38
2022-09-30T10:25:32.056Z,100955.34
2022-09-30T10:28:05.033Z,100942.50
2022-09-30T10:30:44.357Z,100947.00
2022-09-30T10:33:20.742Z,100944.06
2022-09-30T10:36:04.186Z,100932.69
2022-09-30T10:38:34.644Z,100932.69
2022-09-30T10:41:04.093Z,100939.88
2022-09-30T10:43:45.216Z,100940.75
2022-09-30T10:46:25.687Z,100938.72
2022-09-30T10:48:55.853Z,100934.31
2022-09-30T10:51:28.137Z,100939.16
2022-09-30T10:53:56.865Z,100912.06
2022-09-30T10:56:37.928Z,100923.50
2022-09-30T10:59:15.909Z,100913.59
2022-09-30T11:01:55.205Z,100919.38
2022-09-30T11:04:33.232Z,100924.16
2022-09-30T11:07:22.703Z,100925.56
2022-09-30T11:10:04.908Z,100924.03
2022-09-30T11:12:50.805Z,100923.50
2022-09-30T11:16:04.019Z,100917.22
2022-09-30T11:19:17.962Z,100913.28
2022-09-30T11:22:01.603Z,100927.28
2022-09-30T11:24:38.060Z,100928.50
2022-09-30T11:27:11.397Z,100918.50
2022-09-30T11:30:00.504Z,100929.78
2022-09-30T11:32:59.135Z,100922.63
2022-09-30T11:35:52.594Z,100917.91
2022-09-30T11:38:38.075Z,100919.94
2022-09-30T11:41:22.838Z,100908.50
2022-09-30T11:44:05.587Z,100905.28
2022-09-30T11:46:50.630Z,100892.38
2022-09-30T11:49:39.902Z,100898.84
2022-09-30T11:52:28.991Z,100887.47
2022-09-30T11:55:33.633Z,100891.59
2022-09-30T11:58:36.566Z,100883.41
2022-09-30T12:01:26.433Z,100889.78
2022-09-30T12:04:14.023Z,100885.97
2022-09-30T12:07:07.407Z,100878.75
2022-09-30T12:09:41.939Z,100873.66
2022-09-30T12:12:16.560Z,100868.03
2022-09-30T12:15:10.846Z,100873.84
2022-09-30T12:17:50.322Z,100861.91
2022-09-30T12:20:29.099Z,100861.97
2022-09-30T12:23:06.468Z,100856.34
2022-09-30T12:25:41.958Z,100867.16
2022-09-30T12:28:51.336Z,100862.50
2022-09-30T12:31:29.315Z,100858.09
2022-09-30T12:34:32.023Z,100872.13
2022-09-30T12:37:36.455Z,100864.03
2022-09-30T12:40:13.666Z,100869.97
2022-09-30T12:43:10.387Z,100868.22
2022-09-30T12:46:05.992Z,100859.09
2022-09-30T12:48:44.854Z,100861.13
2022-09-30T12:51:24.001Z,100867.91
2022-09-30T12:53:57.410Z,100851.53
2022-09-30T12:56:30.318Z,100856.81
2022-09-30T12:59:00.559Z,100856.31
2022-09-30T13:01:35.949Z,100844.81
2022-09-30T13:04:03.349Z,100846.84
2022-09-30T13:06:46.414Z,100838.78
2022-09-30T13:09:17.064Z,100834.69
2022-09-30T13:11:49.201Z,100831.53
2022-09-30T13:14:26.231Z,100820.75
2022-09-30T13:17:09.254Z,100823.50
2022-09-30T13:19:40.994Z,100807.25
2022-09-30T13:22:20.931Z,100809.34
2022-09-30T13:25:00.715Z,100806.75
2022-09-30T13:27:35.464Z,100798.97
2022-09-30T13:30:25.690Z,100793.03
2022-09-30T13:32:57.701Z,100786.47
2022-09-30T13:35:43.762Z,100793.06
2022-09-30T13:38:24.396Z,100806.22
2022-09-30T13:41:04.129Z,100799.97
2022-09-30T13:43:31.748Z,100804.66
2022-09-30T13:46:05.747Z,100796.22
2022-09-30T13:48:39.672Z,100798.50
2022-09-30T13:51:14.592Z,100807.63
2022-09-30T13:53:51.191Z,100804.06
2022-09-30T13:56:26.154Z,100800.03
2022-09-30T13:59:13.351Z,100794.91
2022-09-30T14:01:55.052Z,100802.00
2022-09-30T14:04:47.539Z,100797.31
2022-09-30T14:07:16.295Z,100792.50
2022-09-30T14:10:11.400Z,100799.16
2022-09-30T14:13:15.560Z,100801.56
2022-09-30T14:16:07.496Z,100792.25
2022-09-30T14:19:07.714Z,100791.13
2022-09-30T14:21:43.713Z,100793.19
2022-09-30T14:24:17.638Z,100784.56
2022-09-30T14:27:04.746Z,100785.09
2022-09-30T14:30:03.167Z,100772.44
2022-09-30T14:32:52.757Z,100773.63
2022-09-30T14:35:28.297Z,100781.25
2022-09-30T14:38:00.321Z,100770.63
2022-09-30T14:40:31.534Z,100762.44
2022-09-30T14:43:05.103Z,100749.94
2022-09-30T14:45:35.585Z,100761.75
2022-09-30T14:48:09.204Z,100753.16
2022-09-30T14:50:54.125Z,100748.75
2022-09-30T14:53:34.041Z,100757.66
2022-09-30T14:56:03.007Z,100752.50
2022-09-30T14:58:33.190Z,100762.50
2022-09-30T15:01:04.751Z,100761.41
2022-09-30T15:03:35.216Z,100764.41
2022-09-30T15:06:03.184Z,100752.03
2022-09-30T15:08:30.774Z,100758.44
2022-09-30T15:10:58.354Z,100761.63
2022-09-30T15:13:31.831Z,100758.16
2022-09-30T15:15:59.623Z,100773.31
2022-09-30T15:18:28.632Z,100770.28
2022-09-30T15:21:00.631Z,100772.97
2022-09-30T15:23:34.371Z,100755.72
2022-09-30T15:26:02.169Z,100768.63
2022-09-30T15:28:29.849Z,100745.50
2022-09-30T15:30:59.787Z,100775.19
2022-09-30T15:33:31.808Z,100763.31
2022-09-30T15:36:19.778Z,100768.53
2022-09-30T15:38:51.214Z,100758.50
2022-09-30T15:41:19.430Z,100774.47
2022-09-30T15:43:54.481Z,100773.03
2022-09-30T15:46:31.935Z,100767.78
2022-09-30T15:49:02.639Z,100772.94
2022-09-30T15:51:37.132Z,100772.22
2022-09-30T15:54:28.668Z,100773.16
2022-09-30T15:56:56.392Z,100775.84
2022-09-30T15:59:23.877Z,100766.59
2022-09-30T16:01:53.119Z,100769.25
2022-09-30T16:04:22.811Z,100764.97
2022-09-30T16:06:54.328Z,100756.66
2022-09-30T16:09:24.647Z,100761.09
2022-09-30T16:12:02.931Z,100755.22
2022-09-30T16:14:52.328Z,100760.69
2022-09-30T16:17:32.606Z,100758.06
2022-09-30T16:20:21.234Z,100751.28
2022-09-30T16:22:49.121Z,100740.91
2022-09-30T16:25:32.699Z,100746.22
2022-09-30T16:28:14.765Z,100742.09
2022-09-30T16:30:45.184Z,100743.09
2022-09-30T16:33:15.471Z,100741.44
2022-09-30T16:35:44.891Z,100742.47
2022-09-30T16:38:17.193Z,100733.13
2022-09-30T16:40:44.721Z,100732.25
2022-09-30T16:43:12.538Z,100737.69
2022-09-30T16:45:42.361Z,100737.75
2022-09-30T16:48:16.615Z,100738.72
2022-09-30T16:51:03.598Z,100728.34
2022-09-30T16:53:31.150Z,100724.97
2022-09-30T16:55:58.792Z,100718.31
2022-09-30T16:58:26.261Z,100719.47
2022-09-30T17:00:54.428Z,100716.03
2022-09-30T17:03:22.633Z,100716.94
2022-09-30T17:05:52.765Z,100711.19
2022-09-30T17:08:21.860Z,100729.47
2022-09-30T17:10:50.055Z,100716.56
2022-09-30T17:13:18.986Z,100713.03
2022-09-30T17:15:51.018Z,100716.56
2022-09-30T17:18:19.287Z,100709.75
2022-09-30T17:20:52.366Z,100711.56
2022-09-30T17:23:25.194Z,100715.91
2022-09-30T17:25:53.701Z,100711.69
2022-09-30T17:28:22.036Z,100704.91
2022-09-30T17:30:50.416Z,100710.28
2022-09-30T17:33:19.796Z,100694.81
2022-09-30T17:35:59.293Z,100701.75
2022-09-30T17:38:27.151Z,100675.81
2022-09-30T17:41:12.485Z,100686.28
2022-09-30T17:43:40.174Z,100675.06
2022-09-30T17:46:07.729Z,100689.97
2022-09-30T17:48:35.446Z,100691.84
2022-09-30T17:51:02.890Z,100693.63
2022-09-30T17:53:30.866Z,100704.97
2022-09-30T17:56:10.153Z,100700.75
2022-09-30T17:58:38.151Z,100706.16
2022-09-30T18:01:09.732Z,100704.47
2022-09-30T18:03:38.074Z,100698.41
2022-09-30T18:06:05.594Z,100704.53
2022-09-30T18:08:33.360Z,100698.47
2022-09-30T18:11:00.959Z,100688.16
2022-09-30T18:13:29.122Z,100694.28
2022-09-30T18:15:59.620Z,100687.31
2022-09-30T18:18:27.094Z,100687.34
2022-09-30T18:20:54.560Z,100683.88
2022-09-30T18:23:22.085Z,100672.56
2022-09-30T18:25:51.979Z,100676.06
2022-09-30T18:28:19.507Z,100670.84
2022-09-30T18:30:47.125Z,100666.59
2022-09-30T18:33:17.257Z,100656.91
2022-09-30T18:35:44.807Z,100652.56
2022-09-30T18:38:14.790Z,100646.47
2022-09-30T18:40:45.579Z,100647.34
2022-09-30T18:43:15.004Z,100647.34
2022-09-30T18:45:43.260Z,100645.66
2022-09-30T18:48:11.215Z,100635.19
2022-09-30T18:50:38.927Z,100625.66
2022-09-30T18:53:09.750Z,100609.88
2022-09-30T18:55:38.821Z,100599.38
2022-09-30T18:58:06.854Z,100599.34
2022-09-30T19:00:34.501Z,100594.97
2022-09-30T19:03:01.987Z,100596.81
2022-09-30T19:05:29.462Z,100588.06
2022-09-30T19:07:57.023Z,100585.44
2022-09-30T19:10:25.582Z,100570.72
2022-09-30T19:12:53.150Z,100578.47
2022-09-30T19:15:20.875Z,100573.25
2022-09-30T19:17:50.630Z,100568.84
2022-09-30T19:20:18.241Z,100563.66
2022-09-30T19:22:46.775Z,100574.97
2022-09-30T19:25:16.353Z,100568.03
2022-09-30T19:27:43.948Z,100573.25
2022-09-30T19:30:14.673Z,100564.53
2022-09-30T19:32:42.280Z,100550.88
2022-09-30T19:35:12.046Z,100570.59
2022-09-30T19:37:56.501Z,100571.47
2022-09-30T19:40:27.703Z,100563.72
2022-09-30T19:42:56.264Z,100558.44
2022-09-30T19:45:26.421Z,100562.75
2022-09-30T19:47:54.446Z,100549.56
2022-09-30T19:50:22.036Z,100550.31
2022-09-30T19:52:56.842Z,100532.97
2022-09-30T19:55:26.525Z,100540.66
2022-09-30T19:57:54.357Z,100530.22
2022-09-30T20:00:22.039Z,100523.22
2022-09-30T20:02:50.174Z,100511.06
2022-09-30T20:05:18.356Z,100508.38
2022-09-30T20:07:45.929Z,100502.25
2022-09-30T20:10:14.119Z,100502.28
2022-09-30T20:12:42.663Z,100505.72
2022-09-30T20:15:37.386Z,100492.09
2022-09-30T20:18:05.117Z,100488.50
2022-09-30T20:20:42.757Z,100490.25
2022-09-30T20:23:10.240Z,100484.97
2022-09-30T20:25:38.301Z,100473.06
2022-09-30T20:28:06.686Z,100470.28
2022-09-30T20:30:38.228Z,100467.66
2022-09-30T20:33:05.960Z,100451.19
2022-09-30T20:35:36.916Z,100459.88
2022-09-30T20:38:05.243Z,100455.50
2022-09-30T20:40:34.413Z,100458.13
2022-09-30T20:43:03.987Z,100448.53
2022-09-30T20:45:31.518Z,100442.47
2022-09-30T20:47:59.057Z,100440.63
2022-09-30T20:50:38.542Z,100443.16
2022-09-30T20:53:09.437Z,100440.59
2022-09-30T20:55:39.293Z,100431.00
2022-09-30T20:58:08.910Z,100434.50
2022-09-30T21:00:39.711Z,100429.25
2022-09-30T21:03:09.908Z,100437.06
2022-09-30T21:05:37.780Z,100422.56
2022-09-30T21:08:07.312Z,100432.78
2022-09-30T21:10:36.918Z,100425.00
2022-09-30T21:13:10.118Z,100431.44
2022-09-30T21:15:39.572Z,100428.09
2022-09-30T21:18:07.408Z,100419.66
2022-09-30T21:20:35.155Z,100430.41
2022-09-30T21:23:03.124Z,100427.25
2022-09-30T21:25:31.961Z,100423.22
2022-09-30T21:27:59.637Z,100417.47
2022-09-30T21:30:27.199Z,100407.44
2022-09-30T21:32:55.024Z,100406.66
2022-09-30T21:35:22.503Z,100393.03
2022-09-30T21:37:50.455Z,100417.53
2022-09-30T21:40:18.985Z,100394.16
2022-09-30T21:42:46.550Z,100400.28
2022-09-30T21:45:14.049Z,100389.16
2022-09-30T21:47:44.715Z,100374.34
2022-09-30T21:50:12.917Z,100386.56
2022-09-30T21:52:40.407Z,100377.19
2022-09-30T21:55:08.170Z,100384.09
2022-09-30T21:57:35.676Z,100386.75
2022-09-30T22:00:03.571Z,100380.78
2022-09-30T22:02:31.369Z,100386.06
2022-09-30T22:04:58.922Z,100376.63
2022-09-30T22:07:27.712Z,100388.88
2022-09-30T22:09:55.467Z,100389.00
2022-09-30T22:12:23.317Z,100396.94
2022-09-30T22:14:50.937Z,100379.72
2022-09-30T22:17:18.430Z,100382.47
2022-09-30T22:19:45.895Z,100374.72
2022-09-30T22:22:13.371Z,100373.06
2022-09-30T22:24:40.992Z,100374.94
2022-09-30T22:27:09.038Z,100371.44
2022-09-30T22:29:36.688Z,100375.03
2022-09-30T22:32:04.184Z,100366.44
2022-09-30T22:34:49.300Z,100350.97
2022-09-30T22:37:34.063Z,100349.28
2022-09-30T22:40:03.173Z,100349.31
2022-09-30T22:42:30.718Z,100354.50
2022-09-30T22:44:58.267Z,100366.78
2022-09-30T22:47:27.596Z,100387.59
2022-09-30T22:49:55.179Z,100354.72
2022-09-30T22:52:22.693Z,100360.81
2022-09-30T22:54:50.187Z,100358.25
2022-09-30T22:57:17.669Z,100360.00
2022-09-30T22:59:47.591Z,100358.28
2022-09-30T23:02:16.081Z,100363.53
2022-09-30T23:04:44.083Z,100351.38
2022-09-30T23:07:11.569Z,100343.59
2022-09-30T23:09:39.213Z,100339.31
2022-09-30T23:12:06.726Z,100343.66
2022-09-30T23:14:34.166Z,100339.41
2022-09-30T23:17:01.675Z,100341.13
2022-09-30T23:19:29.167Z,100327.25
2022-09-30T23:21:56.933Z,100316.88
2022-09-30T23:24:24.419Z,100317.75
2022-09-30T23:26:51.881Z,100316.06
2022-09-30T23:29:19.363Z,100311.69
2022-09-30T23:31:46.894Z,100300.44
2022-09-30T23:34:14.515Z,100297.84
2022-09-30T23:36:41.964Z,100281.50
2022-09-30T23:39:20.125Z,100296.22
2022-09-30T23:41:49.047Z,100284.09
2022-09-30T23:44:19.009Z,100289.31
2022-09-30T23:47:02.284Z,100277.13
2022-09-30T23:49:35.260Z,100279.72
2022-09-30T23:52:11.923Z,100265.00
2022-09-30T23:54:41.502Z,100262.41
2022-09-30T23:57:09.931Z,100235.66
2022-09-30T23:59:37.661Z,100238.97
